createdAt,value
2017-11-30T00:01:29.213Z,100249.94
2017-11-30T00:03:32.539Z,100256.69
2017-11-30T00:05:35.880Z,100253.05
2017-11-30T00:07:39.244Z,100253.57
2017-11-30T00:09:42.520Z,100254.92
2017-11-30T00:11:45.885Z,100250.87
2017-11-30T00:13:49.181Z,100248.72
2017-11-30T00:15:53.940Z,100252.34
2017-11-30T00:17:57.269Z,100245.19
2017-11-30T00:20:01.493Z,100246.95
2017-11-30T00:22:04.780Z,100242.58
2017-11-30T00:24:08.196Z,100241.55
2017-11-30T00:26:12.196Z,100240.30
2017-11-30T00:28:15.702Z,100242.99
2017-11-30T00:30:19.036Z,100237.18
2017-11-30T00:32:22.346Z,100233.13
2017-11-30T00:34:25.780Z,100236.77
2017-11-30T00:36:29.089Z,100236.86
2017-11-30T00:38:32.421Z,100240.39
2017-11-30T00:40:35.750Z,100239.97
2017-11-30T00:42:50.889Z,100246.30
2017-11-30T00:44:54.368Z,100248.59
2017-11-30T00:46:57.641Z,100249.00
2017-11-30T00:49:00.984Z,100249.52
2017-11-30T00:51:04.279Z,100246.81
2017-11-30T00:53:07.575Z,100245.08
2017-11-30T00:55:10.895Z,100247.66
2017-11-30T00:57:14.192Z,100239.27
2017-11-30T00:59:17.556Z,100245.88
2017-11-30T01:01:20.888Z,100241.84
2017-11-30T01:03:24.280Z,100237.91
2017-11-30T01:05:27.672Z,100232.52
2017-11-30T01:07:31.063Z,100231.27
2017-11-30T01:09:34.386Z,100232.61
2017-11-30T01:11:37.697Z,100229.91
2017-11-30T01:13:41.002Z,100222.75
2017-11-30T01:15:44.327Z,100226.38
2017-11-30T01:17:47.617Z,100228.14
2017-11-30T01:19:50.953Z,100222.23
2017-11-30T01:21:54.399Z,100218.70
2017-11-30T01:23:57.685Z,100213.30
2017-11-30T01:26:01.239Z,100213.30
2017-11-30T01:28:04.570Z,100225.35
2017-11-30T01:30:07.877Z,100216.51
2017-11-30T01:32:11.245Z,100210.18
2017-11-30T01:34:14.534Z,100219.21
2017-11-30T01:36:17.909Z,100214.23
2017-11-30T01:38:21.226Z,100209.25
2017-11-30T01:40:24.516Z,100203.85
2017-11-30T01:42:27.906Z,100210.18
2017-11-30T01:44:31.297Z,100210.59
2017-11-30T01:46:34.659Z,100216.00
2017-11-30T01:48:37.991Z,100224.93
2017-11-30T01:50:41.321Z,100228.56
2017-11-30T01:52:44.628Z,100227.73
2017-11-30T01:54:47.925Z,100224.09
2017-11-30T01:56:51.270Z,100229.50
2017-11-30T01:58:54.631Z,100227.22
2017-11-30T02:00:57.926Z,100228.24
2017-11-30T02:03:01.369Z,100225.54
2017-11-30T02:05:04.665Z,100223.26
2017-11-30T02:07:07.989Z,100224.52
2017-11-30T02:09:11.321Z,100223.26
2017-11-30T02:11:14.649Z,100221.49
2017-11-30T02:13:18.074Z,100219.30
2017-11-30T02:15:21.385Z,100216.61
2017-11-30T02:17:24.690Z,100212.56
2017-11-30T02:19:28.081Z,100216.61
2017-11-30T02:21:31.408Z,100212.46
2017-11-30T02:23:34.717Z,100219.21
2017-11-30T02:25:38.011Z,100212.05
2017-11-30T02:27:41.542Z,100208.92
2017-11-30T02:29:44.837Z,100217.03
2017-11-30T02:31:48.125Z,100215.16
2017-11-30T02:33:51.477Z,100211.20
2017-11-30T02:35:54.863Z,100211.62
2017-11-30T02:37:58.153Z,100207.06
2017-11-30T02:40:01.533Z,100195.43
2017-11-30T02:42:04.827Z,100194.59
2017-11-30T02:44:08.135Z,100195.02
2017-11-30T02:46:11.512Z,100194.50
2017-11-30T02:48:14.798Z,100190.03
2017-11-30T02:50:18.142Z,100189.09
2017-11-30T02:52:21.460Z,100187.75
2017-11-30T02:54:24.878Z,100189.61
2017-11-30T02:56:28.159Z,100183.28
2017-11-30T02:58:31.473Z,100181.52
2017-11-30T03:00:34.947Z,100176.63
2017-11-30T03:02:38.234Z,100169.37
2017-11-30T03:04:41.555Z,100168.86
2017-11-30T03:06:44.842Z,100168.95
2017-11-30T03:08:48.133Z,100167.19
2017-11-30T03:10:51.600Z,100170.72
2017-11-30T03:12:54.969Z,100168.53
2017-11-30T03:14:58.253Z,100165.32
2017-11-30T03:17:01.569Z,100159.50
2017-11-30T03:19:04.908Z,100162.52
2017-11-30T03:21:08.288Z,100157.22
2017-11-30T03:23:11.661Z,100159.92
2017-11-30T03:25:14.972Z,100163.14
2017-11-30T03:27:18.324Z,100163.14
2017-11-30T03:29:21.826Z,100168.44
2017-11-30T03:31:25.211Z,100159.09
2017-11-30T03:33:28.537Z,100160.86
2017-11-30T03:35:31.995Z,100156.39
2017-11-30T03:37:35.305Z,100156.80
2017-11-30T03:39:38.680Z,100155.87
2017-11-30T03:41:42.009Z,100166.80
2017-11-30T03:43:45.300Z,100164.39
2017-11-30T03:45:48.851Z,100162.52
2017-11-30T03:47:52.242Z,100155.45
2017-11-30T03:49:55.527Z,100158.05
2017-11-30T03:51:58.874Z,100154.66
2017-11-30T03:54:02.318Z,100156.39
2017-11-30T03:56:05.593Z,100155.45
2017-11-30T03:58:08.888Z,100147.36
2017-11-30T04:00:12.225Z,100144.78
2017-11-30T04:02:15.520Z,100139.27
2017-11-30T04:04:18.965Z,100137.49
2017-11-30T04:06:22.297Z,100139.80
2017-11-30T04:08:25.612Z,100137.49
2017-11-30T04:10:28.918Z,100134.41
2017-11-30T04:12:32.229Z,100135.76
2017-11-30T04:14:35.644Z,100142.89
2017-11-30T04:16:38.909Z,100138.97
2017-11-30T04:18:42.234Z,100138.45
2017-11-30T04:20:45.524Z,100130.36
2017-11-30T04:22:49.242Z,100129.52
2017-11-30T04:24:52.666Z,100119.56
2017-11-30T04:26:55.997Z,100121.11
2017-11-30T04:28:59.399Z,100118.41
2017-11-30T04:31:02.886Z,100118.83
2017-11-30T04:33:06.215Z,100116.13
2017-11-30T04:35:09.538Z,100113.01
2017-11-30T04:37:12.888Z,100113.42
2017-11-30T04:39:16.226Z,100120.59
2017-11-30T04:41:19.526Z,100117.89
2017-11-30T04:43:22.875Z,100121.11
2017-11-30T04:45:26.192Z,100117.47
2017-11-30T04:47:29.544Z,100115.19
2017-11-30T04:49:32.906Z,100113.01
2017-11-30T04:51:36.230Z,100109.80
2017-11-30T04:53:39.501Z,100111.56
2017-11-30T04:55:42.827Z,100104.49
2017-11-30T04:57:46.232Z,100099.93
2017-11-30T04:59:49.624Z,100102.21
2017-11-30T05:01:52.984Z,100107.19
2017-11-30T05:03:56.326Z,100109.47
2017-11-30T05:05:59.674Z,100106.77
2017-11-30T05:08:03.021Z,100109.89
2017-11-30T05:10:06.391Z,100105.84
2017-11-30T05:12:09.682Z,100103.14
2017-11-30T05:14:13.002Z,100104.91
2017-11-30T05:16:16.302Z,100110.31
2017-11-30T05:18:19.749Z,100117.89
2017-11-30T05:20:23.118Z,100117.47
2017-11-30T05:22:26.430Z,100118.41
2017-11-30T05:24:29.814Z,100118.83
2017-11-30T05:26:33.117Z,100105.84
2017-11-30T05:28:36.442Z,100105.84
2017-11-30T05:30:39.732Z,100115.19
2017-11-30T05:32:43.180Z,100109.89
2017-11-30T05:34:46.469Z,100113.42
2017-11-30T05:36:49.753Z,100114.77
2017-11-30T05:38:53.091Z,100105.33
2017-11-30T05:40:56.385Z,100099.52
2017-11-30T05:42:59.824Z,100101.28
2017-11-30T05:45:03.130Z,100094.95
2017-11-30T05:47:06.469Z,100102.63
2017-11-30T05:49:09.744Z,100099.93
2017-11-30T05:51:13.056Z,100104.81
2017-11-30T05:53:16.352Z,100103.56
2017-11-30T05:55:19.654Z,100098.58
2017-11-30T05:57:23.034Z,100099.00
2017-11-30T05:59:26.324Z,100104.39
2017-11-30T06:01:29.609Z,100097.55
2017-11-30T06:03:32.950Z,100097.65
2017-11-30T06:05:36.263Z,100095.78
2017-11-30T06:07:39.568Z,100095.78
2017-11-30T06:09:42.962Z,100098.48
2017-11-30T06:11:46.337Z,100095.88
2017-11-30T06:13:49.717Z,100097.23
2017-11-30T06:15:53.073Z,100086.85
2017-11-30T06:17:56.394Z,100089.55
2017-11-30T06:19:59.703Z,100088.20
2017-11-30T06:22:03.017Z,100093.60
2017-11-30T06:24:06.327Z,100088.20
2017-11-30T06:26:09.639Z,100082.80
2017-11-30T06:28:13.021Z,100090.90
2017-11-30T06:30:16.406Z,100083.73
2017-11-30T06:32:19.898Z,100078.75
2017-11-30T06:34:23.322Z,100085.59
2017-11-30T06:36:26.630Z,100079.17
2017-11-30T06:38:29.974Z,100087.27
2017-11-30T06:40:33.322Z,100084.16
2017-11-30T06:42:36.653Z,100085.92
2017-11-30T06:44:39.994Z,100086.34
2017-11-30T06:46:43.488Z,100084.05
2017-11-30T06:48:46.839Z,100084.05
2017-11-30T06:50:50.149Z,100079.08
2017-11-30T06:52:53.492Z,100077.31
2017-11-30T06:54:56.885Z,100076.38
2017-11-30T06:57:00.230Z,100078.53
2017-11-30T06:59:03.582Z,100077.17
2017-11-30T07:01:06.863Z,100083.83
2017-11-30T07:03:14.529Z,100085.17
2017-11-30T07:05:17.889Z,100082.89
2017-11-30T07:07:21.378Z,100078.84
2017-11-30T07:09:26.112Z,100079.27
2017-11-30T07:11:29.441Z,100078.33
2017-11-30T07:13:32.755Z,100078.33
2017-11-30T07:15:36.083Z,100077.41
2017-11-30T07:17:39.398Z,100080.52
2017-11-30T07:19:42.696Z,100085.91
2017-11-30T07:21:46.005Z,100087.68
2017-11-30T07:23:49.361Z,100090.38
2017-11-30T07:25:52.691Z,100094.84
2017-11-30T07:27:56.901Z,100091.09
2017-11-30T07:30:00.308Z,100091.09
2017-11-30T07:32:03.787Z,100094.11
2017-11-30T07:34:07.158Z,100092.34
2017-11-30T07:36:10.612Z,100092.56
2017-11-30T07:38:13.931Z,100092.33
2017-11-30T07:40:17.227Z,100097.83
2017-11-30T07:42:20.547Z,100098.89
2017-11-30T07:44:23.883Z,100096.47
2017-11-30T07:46:28.161Z,100090.78
2017-11-30T07:48:31.487Z,100091.80
2017-11-30T07:50:34.829Z,100096.97
2017-11-30T07:52:38.153Z,100103.44
2017-11-30T07:54:42.473Z,100099.16
2017-11-30T07:56:45.766Z,100103.01
2017-11-30T07:58:49.109Z,100100.92
2017-11-30T08:00:52.449Z,100105.48
2017-11-30T08:02:55.745Z,100112.55
2017-11-30T08:04:59.131Z,100103.70
2017-11-30T08:07:02.437Z,100106.62
2017-11-30T08:09:05.761Z,100100.89
2017-11-30T08:11:09.122Z,100097.99
2017-11-30T08:13:12.569Z,100091.43
2017-11-30T08:15:15.868Z,100094.87
2017-11-30T08:17:19.241Z,100094.22
2017-11-30T08:19:22.625Z,100106.91
2017-11-30T08:21:25.949Z,100101.70
2017-11-30T08:23:29.357Z,100098.39
2017-11-30T08:25:32.696Z,100097.22
2017-11-30T08:27:36.035Z,100099.31
2017-11-30T08:29:39.438Z,100090.98
2017-11-30T08:31:42.782Z,100094.83
2017-11-30T08:33:46.934Z,100096.88
2017-11-30T08:35:50.221Z,100090.86
2017-11-30T08:37:53.692Z,100089.31
2017-11-30T08:39:57.019Z,100086.48
2017-11-30T08:42:00.439Z,100086.73
2017-11-30T08:44:03.762Z,100085.15
2017-11-30T08:46:07.086Z,100083.60
2017-11-30T08:48:10.465Z,100084.44
2017-11-30T08:50:13.844Z,100077.87
2017-11-30T08:52:17.162Z,100085.77
2017-11-30T08:54:20.467Z,100075.38
2017-11-30T08:56:23.892Z,100083.26
2017-11-30T08:58:27.263Z,100081.19
2017-11-30T09:00:30.657Z,100080.64
2017-11-30T09:02:33.970Z,100083.66
2017-11-30T09:04:37.284Z,100081.17
2017-11-30T09:06:40.665Z,100083.75
2017-11-30T09:08:44.007Z,100081.36
2017-11-30T09:10:47.300Z,100082.09
2017-11-30T09:12:50.651Z,100080.61
2017-11-30T09:14:54.099Z,100075.11
2017-11-30T09:16:57.458Z,100078.55
2017-11-30T09:19:00.889Z,100082.59
2017-11-30T09:21:04.269Z,100077.19
2017-11-30T09:23:07.555Z,100081.53
2017-11-30T09:25:10.949Z,100079.25
2017-11-30T09:27:14.342Z,100078.31
2017-11-30T09:29:17.737Z,100075.19
2017-11-30T09:31:21.086Z,100082.69
2017-11-30T09:33:24.620Z,100082.58
2017-11-30T09:35:28.010Z,100077.59
2017-11-30T09:37:31.361Z,100080.58
2017-11-30T09:39:34.726Z,100073.83
2017-11-30T09:41:38.033Z,100078.30
2017-11-30T09:43:41.475Z,100071.95
2017-11-30T09:45:44.861Z,100073.72
2017-11-30T09:47:48.225Z,100077.68
2017-11-30T09:49:51.563Z,100076.23
2017-11-30T09:51:54.963Z,100068.12
2017-11-30T09:53:58.282Z,100068.41
2017-11-30T09:56:01.692Z,100070.69
2017-11-30T09:58:05.118Z,100068.95
2017-11-30T10:00:08.530Z,100069.34
2017-11-30T10:02:11.906Z,100065.70
2017-11-30T10:04:15.950Z,100067.98
2017-11-30T10:06:19.254Z,100065.59
2017-11-30T10:08:22.692Z,100055.30
2017-11-30T10:10:26.026Z,100054.89
2017-11-30T10:12:29.420Z,100050.41
2017-11-30T10:14:32.943Z,100050.83
2017-11-30T10:16:36.313Z,100044.21
2017-11-30T10:18:39.613Z,100046.50
2017-11-30T10:20:43.060Z,100044.31
2017-11-30T10:22:46.395Z,100040.36
2017-11-30T10:24:49.724Z,100040.36
2017-11-30T10:26:53.085Z,100039.52
2017-11-30T10:28:56.414Z,100041.39
2017-11-30T10:30:59.896Z,100038.69
2017-11-30T10:33:03.221Z,100047.21
2017-11-30T10:35:06.561Z,100040.04
2017-11-30T10:37:09.925Z,100040.97
2017-11-30T10:39:13.283Z,100041.52
2017-11-30T10:41:16.810Z,100041.94
2017-11-30T10:43:20.101Z,100036.22
2017-11-30T10:45:23.433Z,100030.91
2017-11-30T10:47:26.861Z,100030.50
2017-11-30T10:49:30.157Z,100028.83
2017-11-30T10:51:33.481Z,100031.15
2017-11-30T10:53:36.784Z,100026.67
2017-11-30T10:55:40.080Z,100029.89
2017-11-30T10:57:43.474Z,100022.72
2017-11-30T10:59:46.825Z,100019.60
2017-11-30T11:01:50.141Z,100017.84
2017-11-30T11:03:53.448Z,100022.30
2017-11-30T11:05:56.792Z,100016.06
2017-11-30T11:08:00.233Z,100015.65
2017-11-30T11:10:03.553Z,100016.59
2017-11-30T11:12:06.890Z,100013.47
2017-11-30T11:14:10.208Z,100013.47
2017-11-30T11:16:13.594Z,100006.84
2017-11-30T11:18:16.965Z,100008.19
2017-11-30T11:20:20.252Z,100005.88
2017-11-30T11:22:23.978Z,100004.52
2017-11-30T11:24:27.309Z,99995.48
2017-11-30T11:26:31.476Z,100000.47
2017-11-30T11:28:35.121Z,100000.89
2017-11-30T11:30:38.499Z,99999.53
2017-11-30T11:32:41.896Z,99999.12
2017-11-30T11:34:45.246Z,99999.12
2017-11-30T11:36:48.546Z,99997.25
2017-11-30T11:38:51.867Z,99995.80
2017-11-30T11:40:55.239Z,99994.86
2017-11-30T11:42:58.655Z,99999.23
2017-11-30T11:45:02.081Z,99993.83
2017-11-30T11:47:05.422Z,99996.95
2017-11-30T11:49:08.736Z,99995.46
2017-11-30T11:51:12.031Z,99991.63
2017-11-30T11:53:15.390Z,99990.17
2017-11-30T11:55:18.735Z,99992.45
2017-11-30T11:57:22.041Z,99989.10
2017-11-30T11:59:25.339Z,99982.77
2017-11-30T12:01:28.828Z,99984.95
2017-11-30T12:03:32.221Z,99989.83
2017-11-30T12:05:35.611Z,99986.51
2017-11-30T12:07:39.821Z,99990.02
2017-11-30T12:09:43.122Z,99986.28
2017-11-30T12:11:46.540Z,99987.63
2017-11-30T12:13:49.978Z,99985.34
2017-11-30T12:15:53.284Z,99982.64
2017-11-30T12:17:56.657Z,99981.60
2017-11-30T12:19:59.975Z,99981.60
2017-11-30T12:22:03.381Z,99985.52
2017-11-30T12:24:06.760Z,99983.78
2017-11-30T12:26:10.310Z,99984.17
2017-11-30T12:28:13.617Z,99988.55
2017-11-30T12:30:17.014Z,99985.42
2017-11-30T12:32:20.355Z,99987.09
2017-11-30T12:34:23.695Z,99981.68
2017-11-30T12:36:27.041Z,99983.03
2017-11-30T12:38:30.342Z,99981.16
2017-11-30T12:40:33.987Z,99982.80
2017-11-30T12:42:37.333Z,99982.80
2017-11-30T12:44:40.981Z,99978.23
2017-11-30T12:46:44.307Z,99979.16
2017-11-30T12:48:47.637Z,99982.80
2017-11-30T12:50:51.022Z,99982.80
2017-11-30T12:52:54.332Z,99982.00
2017-11-30T12:54:58.840Z,99983.34
2017-11-30T12:57:02.247Z,99978.87
2017-11-30T12:59:05.534Z,99978.87
2017-11-30T13:01:08.882Z,99978.36
2017-11-30T13:03:12.172Z,99984.28
2017-11-30T13:05:15.493Z,99978.05
2017-11-30T13:07:18.787Z,99975.02
2017-11-30T13:09:22.164Z,99977.20
2017-11-30T13:11:25.527Z,99975.55
2017-11-30T13:13:28.983Z,99970.97
2017-11-30T13:15:32.293Z,99974.71
2017-11-30T13:17:35.664Z,99975.12
2017-11-30T13:19:38.955Z,99980.95
2017-11-30T13:21:42.297Z,99977.31
2017-11-30T13:23:45.637Z,99973.26
2017-11-30T13:27:58.476Z,99981.68
2017-11-30T13:30:01.820Z,99979.81
2017-11-30T13:32:05.136Z,99986.98
2017-11-30T13:34:08.448Z,99985.92
2017-11-30T13:36:11.755Z,99984.05
2017-11-30T13:38:15.056Z,99984.05
2017-11-30T13:40:18.494Z,99987.48
2017-11-30T13:42:21.984Z,99981.77
2017-11-30T13:44:25.357Z,99987.48
2017-11-30T13:46:28.700Z,99982.91
2017-11-30T13:48:32.013Z,99985.61
2017-11-30T13:50:35.440Z,99989.53
2017-11-30T13:52:38.836Z,99985.61
2017-11-30T13:54:42.234Z,99985.89
2017-11-30T13:56:45.571Z,99985.48
2017-11-30T13:58:48.894Z,99978.86
2017-11-30T14:00:52.312Z,99981.97
2017-11-30T14:02:55.804Z,99979.27
2017-11-30T14:04:59.160Z,99980.07
2017-11-30T14:07:02.480Z,99974.90
2017-11-30T14:09:05.866Z,99978.13
2017-11-30T14:11:09.163Z,99983.42
2017-11-30T14:13:12.530Z,99978.95
2017-11-30T14:15:15.984Z,99981.24
2017-11-30T14:17:19.396Z,99983.53
2017-11-30T14:19:22.820Z,99985.81
2017-11-30T14:21:26.120Z,99987.06
2017-11-30T14:23:29.481Z,99990.70
2017-11-30T14:25:32.841Z,99989.04
2017-11-30T14:27:36.209Z,99988.10
2017-11-30T14:29:39.556Z,99988.10
2017-11-30T14:31:42.852Z,99995.38
2017-11-30T14:33:46.209Z,99989.97
2017-11-30T14:35:49.555Z,99989.17
2017-11-30T14:37:52.836Z,99985.11
2017-11-30T14:39:56.156Z,99986.05
2017-11-30T14:41:59.492Z,99985.11
2017-11-30T14:44:02.794Z,99989.27
2017-11-30T14:46:06.091Z,99983.86
2017-11-30T14:48:09.543Z,99987.09
2017-11-30T14:50:13.094Z,99991.14
2017-11-30T14:52:16.428Z,99988.44
2017-11-30T14:54:19.857Z,99986.77
2017-11-30T14:56:23.400Z,99993.42
2017-11-30T14:58:26.698Z,99986.77
2017-11-30T15:00:30.028Z,99990.41
2017-11-30T15:02:33.384Z,99988.64
2017-11-30T15:04:36.712Z,99987.84
2017-11-30T15:06:40.070Z,99990.55
2017-11-30T15:08:43.383Z,99996.34
2017-11-30T15:10:46.676Z,99996.34
2017-11-30T15:12:51.018Z,99998.66
2017-11-30T15:14:54.511Z,100003.52
2017-11-30T15:16:57.832Z,100004.45
2017-11-30T15:19:01.168Z,100003.52
2017-11-30T15:21:04.597Z,100002.99
2017-11-30T15:23:07.949Z,100002.99
2017-11-30T15:25:11.372Z,100009.33
2017-11-30T15:27:14.671Z,100004.86
2017-11-30T15:29:17.973Z,99999.67
2017-11-30T15:31:21.296Z,100006.53
2017-11-30T15:33:24.733Z,100000.29
2017-11-30T15:35:28.124Z,100001.95
2017-11-30T15:37:31.616Z,99996.13
2017-11-30T15:39:35.010Z,100005.48
2017-11-30T15:41:38.350Z,99998.84
2017-11-30T15:43:41.664Z,100006.84
2017-11-30T15:45:44.992Z,100008.61
2017-11-30T15:47:48.298Z,100007.27
2017-11-30T15:49:51.853Z,100007.27
2017-11-30T15:51:55.155Z,100005.78
2017-11-30T15:53:58.504Z,100005.39
2017-11-30T15:56:01.888Z,100005.39
2017-11-30T15:58:05.268Z,100008.09
2017-11-30T16:00:08.625Z,100004.32
2017-11-30T16:02:12.134Z,100002.55
2017-11-30T16:04:15.428Z,100002.03
2017-11-30T16:06:18.786Z,100006.92
2017-11-30T16:08:22.150Z,100003.80
2017-11-30T16:10:25.587Z,100007.76
2017-11-30T16:12:28.908Z,100008.07
2017-11-30T16:14:32.234Z,100005.47
2017-11-30T16:16:35.752Z,100005.89
2017-11-30T16:18:39.061Z,100013.48
2017-11-30T16:20:42.372Z,100014.28
2017-11-30T16:22:45.712Z,100008.88
2017-11-30T16:24:49.035Z,100010.64
2017-11-30T16:26:52.507Z,100013.34
2017-11-30T16:28:55.864Z,100019.06
2017-11-30T16:30:59.302Z,100017.82
2017-11-30T16:33:02.629Z,100020.00
2017-11-30T16:35:06.034Z,100025.41
2017-11-30T16:37:09.467Z,100020.84
2017-11-30T16:39:12.786Z,100024.58
2017-11-30T16:41:16.153Z,100019.91
2017-11-30T16:43:19.444Z,100018.55
2017-11-30T16:45:22.792Z,100023.86
2017-11-30T16:47:26.118Z,100023.86
2017-11-30T16:49:29.479Z,100016.16
2017-11-30T16:51:33.066Z,100015.75
2017-11-30T16:53:36.467Z,100016.97
2017-11-30T16:55:39.788Z,100023.30
2017-11-30T16:57:43.183Z,100016.97
2017-11-30T16:59:46.503Z,100017.52
2017-11-30T17:01:49.872Z,100021.67
2017-11-30T17:03:53.250Z,100021.25
2017-11-30T17:05:56.560Z,100024.89
2017-11-30T17:07:59.932Z,100031.75
2017-11-30T17:10:03.272Z,100029.70
2017-11-30T17:12:06.619Z,100028.34
2017-11-30T17:14:09.960Z,100031.05
2017-11-30T17:16:13.471Z,100030.42
2017-11-30T17:18:16.845Z,100030.00
2017-11-30T17:20:20.273Z,100030.00
2017-11-30T17:22:23.777Z,100034.71
2017-11-30T17:24:27.097Z,100029.82
2017-11-30T17:26:30.417Z,100028.16
2017-11-30T17:28:33.803Z,100034.08
2017-11-30T17:30:37.124Z,100030.55
2017-11-30T17:32:40.453Z,100026.20
2017-11-30T17:34:43.868Z,100033.06
2017-11-30T17:36:47.197Z,100037.31
2017-11-30T17:38:50.566Z,100037.87
2017-11-30T17:40:53.901Z,100036.09
2017-11-30T17:42:57.214Z,100042.02
2017-11-30T17:45:00.575Z,100050.23
2017-11-30T17:47:03.893Z,100042.33
2017-11-30T17:49:07.304Z,100046.09
2017-11-30T17:51:10.719Z,100050.77
2017-11-30T17:53:14.187Z,100049.00
2017-11-30T17:55:17.724Z,100051.94
2017-11-30T17:57:21.136Z,100050.16
2017-11-30T17:59:24.501Z,100050.37
2017-11-30T18:01:27.968Z,100052.23
2017-11-30T18:03:31.353Z,100052.78
2017-11-30T18:05:34.749Z,100058.29
2017-11-30T18:07:38.077Z,100063.80
2017-11-30T18:09:41.440Z,100062.55
2017-11-30T18:11:44.796Z,100066.70
2017-11-30T18:13:48.156Z,100065.58
2017-11-30T18:15:51.557Z,100062.56
2017-11-30T18:17:55.000Z,100061.20
2017-11-30T18:19:58.472Z,100059.67
2017-11-30T18:22:01.790Z,100062.89
2017-11-30T18:24:05.146Z,100062.47
2017-11-30T18:26:08.502Z,100066.21
2017-11-30T18:28:11.920Z,100068.08
2017-11-30T18:30:15.304Z,100070.08
2017-11-30T18:32:18.608Z,100069.66
2017-11-30T18:34:21.935Z,100069.34
2017-11-30T18:36:25.422Z,100073.11
2017-11-30T18:38:28.677Z,100079.03
2017-11-30T18:40:32.154Z,100073.73
2017-11-30T18:42:35.606Z,100076.95
2017-11-30T18:44:39.042Z,100079.75
2017-11-30T18:46:42.360Z,100085.28
2017-11-30T18:48:45.691Z,100084.45
2017-11-30T18:50:49.024Z,100088.60
2017-11-30T18:52:52.335Z,100086.38
2017-11-30T18:54:55.708Z,100087.41
2017-11-30T18:56:59.056Z,100082.95
2017-11-30T18:59:02.368Z,100090.25
2017-11-30T19:01:05.708Z,100087.23
2017-11-30T19:03:09.092Z,100090.03
2017-11-30T19:05:12.400Z,100090.55
2017-11-30T19:07:15.768Z,100091.48
2017-11-30T19:09:19.079Z,100095.66
2017-11-30T19:11:22.455Z,100096.70
2017-11-30T19:13:25.916Z,100098.98
2017-11-30T19:15:29.237Z,100100.84
2017-11-30T19:17:32.552Z,100100.95
2017-11-30T19:19:35.901Z,100098.24
2017-11-30T19:21:39.224Z,100097.55
2017-11-30T19:23:42.547Z,100100.34
2017-11-30T19:25:45.894Z,100103.05
2017-11-30T19:27:49.272Z,100101.80
2017-11-30T19:29:52.633Z,100105.56
2017-11-30T19:31:56.015Z,100102.86
2017-11-30T19:33:59.340Z,100101.60
2017-11-30T19:36:02.728Z,100105.75
2017-11-30T19:38:06.012Z,100106.17
2017-11-30T19:40:09.329Z,100109.48
2017-11-30T19:42:12.984Z,100112.70
2017-11-30T19:44:16.822Z,100105.15
2017-11-30T19:46:20.532Z,100109.20
2017-11-30T19:48:23.980Z,100114.70
2017-11-30T19:50:27.803Z,100116.56
2017-11-30T19:52:31.387Z,100116.25
2017-11-30T19:54:34.768Z,100116.25
2017-11-30T19:56:38.368Z,100126.63
2017-11-30T19:58:41.720Z,100123.65
2017-11-30T20:00:45.047Z,100123.33
2017-11-30T20:02:48.526Z,100125.20
2017-11-30T20:04:51.838Z,100121.56
2017-11-30T20:06:55.333Z,100125.30
2017-11-30T20:08:58.872Z,100123.94
2017-11-30T20:11:02.270Z,100124.48
2017-11-30T20:13:06.628Z,100132.69
2017-11-30T20:15:09.954Z,100136.84
2017-11-30T20:17:13.262Z,100135.91
2017-11-30T20:19:16.580Z,100135.17
2017-11-30T20:21:19.988Z,100147.33
2017-11-30T20:23:23.293Z,100138.52
2017-11-30T20:25:26.604Z,100141.63
2017-11-30T20:27:30.000Z,100138.52
2017-11-30T20:29:33.316Z,100142.25
2017-11-30T20:31:36.622Z,100141.83
2017-11-30T20:33:40.017Z,100145.98
2017-11-30T20:35:43.424Z,100147.75
2017-11-30T20:37:46.713Z,100148.39
2017-11-30T20:39:50.071Z,100153.79
2017-11-30T20:41:53.440Z,100154.73
2017-11-30T20:43:56.773Z,100152.13
2017-11-30T20:46:00.132Z,100152.22
2017-11-30T20:48:03.451Z,100151.80
2017-11-30T20:50:06.814Z,100158.14
2017-11-30T20:52:10.333Z,100154.73
2017-11-30T20:54:13.692Z,100161.90
2017-11-30T20:56:17.033Z,100164.18
2017-11-30T20:58:20.524Z,100163.25
2017-11-30T21:00:24.003Z,100166.05
2017-11-30T21:02:27.452Z,100167.91
2017-11-30T21:04:36.086Z,100165.21
2017-11-30T21:06:44.846Z,100168.94
2017-11-30T21:08:50.307Z,100168.01
2017-11-30T21:10:53.648Z,100169.88
2017-11-30T21:12:56.962Z,100170.42
2017-11-30T21:15:00.297Z,100177.69
2017-11-30T21:17:03.936Z,100179.45
2017-11-30T21:19:07.452Z,100175.50
2017-11-30T21:21:11.046Z,100170.52
2017-11-30T21:23:14.589Z,100181.93
2017-11-30T21:25:17.952Z,100189.52
2017-11-30T21:27:21.324Z,100187.33
2017-11-30T21:29:24.727Z,100185.14
2017-11-30T21:31:28.121Z,100189.74
2017-11-30T21:33:31.453Z,100194.72
2017-11-30T21:35:34.764Z,100197.52
2017-11-30T21:37:38.225Z,100190.77
2017-11-30T21:39:42.421Z,100194.82
2017-11-30T21:41:45.790Z,100193.56
2017-11-30T21:43:49.091Z,100195.44
2017-11-30T21:45:52.569Z,100199.06
2017-11-30T21:47:55.961Z,100207.16
2017-11-30T21:49:59.290Z,100210.80
2017-11-30T21:52:02.568Z,100210.51
2017-11-30T21:54:05.929Z,100214.98
2017-11-30T21:56:09.320Z,100212.38
2017-11-30T21:58:12.688Z,100214.14
2017-11-30T22:00:16.044Z,100218.29
2017-11-30T22:02:19.362Z,100212.89
2017-11-30T22:04:22.662Z,100211.63
2017-11-30T22:06:26.044Z,100216.20
2017-11-30T22:08:29.404Z,100217.13
2017-11-30T22:10:32.708Z,100220.25
2017-11-30T22:12:36.090Z,100222.95
2017-11-30T22:14:39.406Z,100226.19
2017-11-30T22:16:42.736Z,100231.17
2017-11-30T22:18:46.076Z,100230.86
2017-11-30T22:20:49.465Z,100229.09
2017-11-30T22:22:52.873Z,100221.50
2017-11-30T22:24:56.267Z,100226.90
2017-11-30T22:26:59.659Z,100231.78
2017-11-30T22:29:03.062Z,100230.11
2017-11-30T22:31:06.386Z,100233.33
2017-11-30T22:33:09.760Z,100234.67
2017-11-30T22:35:13.060Z,100239.27
2017-11-30T22:37:16.439Z,100240.63
2017-11-30T22:39:19.796Z,100239.79
2017-11-30T22:41:23.224Z,100241.14
2017-11-30T22:43:26.566Z,100243.42
2017-11-30T22:45:29.964Z,100248.81
2017-11-30T22:47:33.285Z,100243.42
2017-11-30T22:49:36.616Z,100244.35
2017-11-30T22:51:40.086Z,100247.05
2017-11-30T22:53:43.392Z,100247.14
2017-11-30T22:55:46.767Z,100248.08
2017-11-30T22:57:50.067Z,100251.20
2017-11-30T22:59:53.376Z,100254.41
2017-11-30T23:01:56.764Z,100251.30
2017-11-30T23:04:00.113Z,100256.82
2017-11-30T23:06:03.471Z,100258.27
2017-11-30T23:08:06.816Z,100255.56
2017-11-30T23:10:10.198Z,100260.87
2017-11-30T23:12:13.588Z,100263.25
2017-11-30T23:14:16.904Z,100262.31
2017-11-30T23:16:20.272Z,100257.43
2017-11-30T23:18:23.591Z,100262.83
2017-11-30T23:20:26.895Z,100262.31
2017-11-30T23:22:30.289Z,100270.92
2017-11-30T23:24:33.588Z,100268.74
2017-11-30T23:26:37.026Z,100274.98
2017-11-30T23:28:40.480Z,100269.25
2017-11-30T23:30:43.810Z,100270.19
2017-11-30T23:32:47.155Z,100272.89
2017-11-30T23:34:50.458Z,100273.81
2017-11-30T23:36:53.777Z,100277.06